sensor_id;sensor_type;location;lat;lon;timestamp;pressure;altitude;pressure_sealevel;temperature;humidity
49973;BME280;71845;49.798;10.968;2024-01-30T00:00:06;99607.31;;;2.01;62.41
49973;BME280;71845;49.798;10.968;2024-01-30T00:02:35;99609.94;;;1.96;62.93
49973;BME280;71845;49.798;10.968;2024-01-30T00:05:04;99610.75;;;2.08;62.40
49973;BME280;71845;49.798;10.968;2024-01-30T00:07:31;99609.97;;;1.93;63.55
49973;BME280;71845;49.798;10.968;2024-01-30T00:10:02;99612.53;;;1.99;62.55
49973;BME280;71845;49.798;10.968;2024-01-30T00:12:32;99613.34;;;2.11;62.47
49973;BME280;71845;49.798;10.968;2024-01-30T00:15:03;99609.91;;;2.03;62.71
49973;BME280;71845;49.798;10.968;2024-01-30T00:17:39;99615.19;;;1.98;62.52
49973;BME280;71845;49.798;10.968;2024-01-30T00:20:10;99611.66;;;2.00;62.83
49973;BME280;71845;49.798;10.968;2024-01-30T00:22:39;99618.88;;;1.58;63.66
49973;BME280;71845;49.798;10.968;2024-01-30T00:25:09;99620.56;;;1.67;63.92
49973;BME280;71845;49.798;10.968;2024-01-30T00:27:38;99618.88;;;1.56;63.79
49973;BME280;71845;49.798;10.968;2024-01-30T00:30:07;99625.84;;;1.53;63.51
49973;BME280;71845;49.798;10.968;2024-01-30T00:32:35;99610.34;;;1.08;65.18
49973;BME280;71845;49.798;10.968;2024-01-30T00:35:05;99605.03;;;1.33;64.78
49973;BME280;71845;49.798;10.968;2024-01-30T00:37:32;99604.25;;;1.01;65.25
49973;BME280;71845;49.798;10.968;2024-01-30T00:40:01;99607.69;;;1.23;65.46
49973;BME280;71845;49.798;10.968;2024-01-30T00:42:30;99606.88;;;1.03;65.16
49973;BME280;71845;49.798;10.968;2024-01-30T00:45:05;99609.50;;;1.03;66.05
49973;BME280;71845;49.798;10.968;2024-01-30T00:47:37;99596.47;;;0.92;65.50
49973;BME280;71845;49.798;10.968;2024-01-30T00:50:13;99603.41;;;0.96;65.80
49973;BME280;71845;49.798;10.968;2024-01-30T00:52:42;99604.25;;;1.03;65.59
49973;BME280;71845;49.798;10.968;2024-01-30T00:55:11;99596.50;;;0.71;65.99
49973;BME280;71845;49.798;10.968;2024-01-30T00:57:42;99601.69;;;0.82;66.09
49973;BME280;71845;49.798;10.968;2024-01-30T01:00:15;99596.50;;;0.68;66.88
49973;BME280;71845;49.798;10.968;2024-01-30T01:02:44;99600.00;;;0.47;67.65
49973;BME280;71845;49.798;10.968;2024-01-30T01:05:13;99593.91;;;0.33;69.11
49973;BME280;71845;49.798;10.968;2024-01-30T01:07:43;99590.44;;;0.46;68.33
49973;BME280;71845;49.798;10.968;2024-01-30T01:10:14;99606.06;;;0.52;68.37
49973;BME280;71845;49.798;10.968;2024-01-30T01:12:43;99590.44;;;0.40;69.33
49973;BME280;71845;49.798;10.968;2024-01-30T01:15:14;99589.56;;;0.47;69.70
49973;BME280;71845;49.798;10.968;2024-01-30T01:17:45;99585.19;;;0.49;69.08
49973;BME280;71845;49.798;10.968;2024-01-30T01:20:16;99584.34;;;0.50;69.19
49973;BME280;71845;49.798;10.968;2024-01-30T01:22:44;99593.03;;;0.44;69.20
49973;BME280;71845;49.798;10.968;2024-01-30T01:25:14;99586.06;;;0.54;68.94
49973;BME280;71845;49.798;10.968;2024-01-30T01:27:42;99588.66;;;0.54;68.81
49973;BME280;71845;49.798;10.968;2024-01-30T01:30:24;99576.53;;;0.44;68.60
49973;BME280;71845;49.798;10.968;2024-01-30T01:32:52;99586.94;;;0.35;68.93
49973;BME280;71845;49.798;10.968;2024-01-30T01:35:24;99591.28;;;0.33;69.08
49973;BME280;71845;49.798;10.968;2024-01-30T01:37:52;99579.13;;;0.19;69.29
49973;BME280;71845;49.798;10.968;2024-01-30T01:40:23;99582.59;;;0.38;69.25
49973;BME280;71845;49.798;10.968;2024-01-30T01:42:52;99573.94;;;0.25;69.81
49973;BME280;71845;49.798;10.968;2024-01-30T01:45:28;99575.66;;;0.14;70.20
49973;BME280;71845;49.798;10.968;2024-01-30T01:47:58;99574.78;;;0.23;69.65
49973;BME280;71845;49.798;10.968;2024-01-30T01:50:36;99568.72;;;0.30;69.18
49973;BME280;71845;49.798;10.968;2024-01-30T01:53:08;99566.97;;;0.27;69.66
49973;BME280;71845;49.798;10.968;2024-01-30T01:55:38;99558.28;;;0.33;68.73
49973;BME280;71845;49.798;10.968;2024-01-30T01:58:09;99566.94;;;0.37;68.51
49973;BME280;71845;49.798;10.968;2024-01-30T02:00:46;99561.72;;;0.37;68.49
49973;BME280;71845;49.798;10.968;2024-01-30T02:03:18;99571.31;;;0.41;68.04
49973;BME280;71845;49.798;10.968;2024-01-30T02:05:48;99573.91;;;0.49;67.64
49973;BME280;71845;49.798;10.968;2024-01-30T02:08:14;99570.44;;;0.45;67.79
49973;BME280;71845;49.798;10.968;2024-01-30T02:10:43;99575.66;;;0.47;67.35
49973;BME280;71845;49.798;10.968;2024-01-30T02:13:13;99572.19;;;0.43;68.34
49973;BME280;71845;49.798;10.968;2024-01-30T02:15:49;99573.91;;;0.42;68.44
49973;BME280;71845;49.798;10.968;2024-01-30T02:18:20;99566.09;;;0.25;68.46
49973;BME280;71845;49.798;10.968;2024-01-30T02:20:47;99575.63;;;0.20;68.66
49973;BME280;71845;49.798;10.968;2024-01-30T02:23:22;99564.34;;;0.15;68.72
49973;BME280;71845;49.798;10.968;2024-01-30T02:25:53;99551.31;;;0.29;67.85
49973;BME280;71845;49.798;10.968;2024-01-30T02:28:21;99547.84;;;0.22;68.70
49973;BME280;71845;49.798;10.968;2024-01-30T02:31:02;99546.97;;;0.11;68.49
49973;BME280;71845;49.798;10.968;2024-01-30T02:33:32;99540.00;;;0.19;68.50
49973;BME280;71845;49.798;10.968;2024-01-30T02:36:03;99546.97;;;0.19;68.25
49973;BME280;71845;49.798;10.968;2024-01-30T02:38:36;99546.97;;;0.22;68.35
49973;BME280;71845;49.798;10.968;2024-01-30T02:41:05;99541.78;;;0.15;68.57
49973;BME280;71845;49.798;10.968;2024-01-30T02:43:40;99553.06;;;0.13;68.18
49973;BME280;71845;49.798;10.968;2024-01-30T02:46:08;99549.56;;;0.09;67.61
49973;BME280;71845;49.798;10.968;2024-01-30T02:48:36;99556.53;;;-0.01;68.27
49973;BME280;71845;49.798;10.968;2024-01-30T02:51:05;99556.53;;;0.17;67.51
49973;BME280;71845;49.798;10.968;2024-01-30T02:53:44;99550.44;;;0.27;67.29
49973;BME280;71845;49.798;10.968;2024-01-30T02:56:12;99542.63;;;0.24;67.33
49973;BME280;71845;49.798;10.968;2024-01-30T02:58:40;99554.78;;;0.06;67.94
49973;BME280;71845;49.798;10.968;2024-01-30T03:01:10;99554.78;;;-0.05;68.24
49973;BME280;71845;49.798;10.968;2024-01-30T03:03:40;99557.38;;;0.12;67.86
49973;BME280;71845;49.798;10.968;2024-01-30T03:06:11;99558.28;;;0.02;68.38
49973;BME280;71845;49.798;10.968;2024-01-30T03:08:55;99560.88;;;0.14;67.79
49973;BME280;71845;49.798;10.968;2024-01-30T03:11:31;99548.69;;;-0.13;68.82
49973;BME280;71845;49.798;10.968;2024-01-30T03:13:59;99559.97;;;-0.23;69.23
49973;BME280;71845;49.798;10.968;2024-01-30T03:16:27;99561.69;;;-0.29;69.01
49973;BME280;71845;49.798;10.968;2024-01-30T03:18:58;99567.81;;;-0.11;68.48
49973;BME280;71845;49.798;10.968;2024-01-30T03:21:30;99557.34;;;-0.30;68.67
49973;BME280;71845;49.798;10.968;2024-01-30T03:24:01;99558.22;;;-0.32;69.35
49973;BME280;71845;49.798;10.968;2024-01-30T03:26:30;99566.91;;;-0.33;69.44
49973;BME280;71845;49.798;10.968;2024-01-30T03:29:05;99563.44;;;-0.28;69.00
49973;BME280;71845;49.798;10.968;2024-01-30T03:31:36;99561.63;;;-0.57;69.58
49973;BME280;71845;49.798;10.968;2024-01-30T03:34:06;99559.06;;;-0.41;68.96
49973;BME280;71845;49.798;10.968;2024-01-30T03:36:33;99566.81;;;-0.55;69.84
49973;BME280;71845;49.798;10.968;2024-01-30T03:39:06;99563.38;;;-0.52;69.56
49973;BME280;71845;49.798;10.968;2024-01-30T03:41:42;99563.31;;;-0.68;71.04
49973;BME280;71845;49.798;10.968;2024-01-30T03:44:23;99572.06;;;-0.57;70.42
49973;BME280;71845;49.798;10.968;2024-01-30T03:46:52;99572.03;;;-0.61;70.47
49973;BME280;71845;49.798;10.968;2024-01-30T03:49:20;99572.00;;;-0.67;70.28
49973;BME280;71845;49.798;10.968;2024-01-30T03:51:48;99571.13;;;-0.65;70.38
49973;BME280;71845;49.798;10.968;2024-01-30T03:54:28;99564.22;;;-0.60;70.58
49973;BME280;71845;49.798;10.968;2024-01-30T03:56:58;99569.44;;;-0.53;70.38
49973;BME280;71845;49.798;10.968;2024-01-30T03:59:28;99575.44;;;-0.72;70.55
49973;BME280;71845;49.798;10.968;2024-01-30T04:01:58;99572.00;;;-0.72;71.05
49973;BME280;71845;49.798;10.968;2024-01-30T04:04:28;99567.66;;;-0.67;71.09
49973;BME280;71845;49.798;10.968;2024-01-30T04:06:58;99576.34;;;-0.65;71.12
49973;BME280;71845;49.798;10.968;2024-01-30T04:09:40;99578.97;;;-0.66;71.08
49973;BME280;71845;49.798;10.968;2024-01-30T04:12:08;99568.47;;;-0.80;71.09
49973;BME280;71845;49.798;10.968;2024-01-30T04:14:39;99565.84;;;-0.90;71.64
49973;BME280;71845;49.798;10.968;2024-01-30T04:17:09;99569.31;;;-0.88;71.66
49973;BME280;71845;49.798;10.968;2024-01-30T04:19:38;99568.34;;;-1.07;72.95
49973;BME280;71845;49.798;10.968;2024-01-30T04:22:13;99571.91;;;-0.91;72.27
49973;BME280;71845;49.798;10.968;2024-01-30T04:24:46;99565.84;;;-0.88;72.93
49973;BME280;71845;49.798;10.968;2024-01-30T04:27:16;99557.13;;;-0.98;72.60
49973;BME280;71845;49.798;10.968;2024-01-30T04:29:46;99564.13;;;-0.88;72.71
49973;BME280;71845;49.798;10.968;2024-01-30T04:32:16;99565.84;;;-0.90;72.85
49973;BME280;71845;49.798;10.968;2024-01-30T04:34:44;99575.44;;;-0.81;71.99
49973;BME280;71845;49.798;10.968;2024-01-30T04:37:14;99571.88;;;-0.95;72.93
49973;BME280;71845;49.798;10.968;2024-01-30T04:39:44;99571.06;;;-0.87;72.42
49973;BME280;71845;49.798;10.968;2024-01-30T04:42:12;99568.47;;;-0.85;72.07
49973;BME280;71845;49.798;10.968;2024-01-30T04:44:41;99564.13;;;-0.88;71.97
49973;BME280;71845;49.798;10.968;2024-01-30T04:47:09;99575.44;;;-0.78;71.53
49973;BME280;71845;49.798;10.968;2024-01-30T04:49:39;99571.97;;;-0.80;71.29
49973;BME280;71845;49.798;10.968;2024-01-30T04:52:09;99587.56;;;-0.86;71.42
49973;BME280;71845;49.798;10.968;2024-01-30T04:54:38;99577.97;;;-0.96;71.52
49973;BME280;71845;49.798;10.968;2024-01-30T04:57:22;99566.72;;;-0.85;71.02
49973;BME280;71845;49.798;10.968;2024-01-30T04:59:52;99573.69;;;-0.82;71.13
49973;BME280;71845;49.798;10.968;2024-01-30T05:02:23;99584.94;;;-0.88;71.71
49973;BME280;71845;49.798;10.968;2024-01-30T05:04:53;99578.03;;;-0.79;71.49
49973;BME280;71845;49.798;10.968;2024-01-30T05:07:24;99583.22;;;-0.86;71.58
49973;BME280;71845;49.798;10.968;2024-01-30T05:09:52;99583.22;;;-0.82;71.29
49973;BME280;71845;49.798;10.968;2024-01-30T05:12:33;99588.50;;;-0.67;70.79
49973;BME280;71845;49.798;10.968;2024-01-30T05:15:05;99581.56;;;-0.65;70.85
49973;BME280;71845;49.798;10.968;2024-01-30T05:17:47;99583.34;;;-0.51;69.78
49973;BME280;71845;49.798;10.968;2024-01-30T05:20:16;99588.56;;;-0.48;69.79
49973;BME280;71845;49.798;10.968;2024-01-30T05:22:46;99597.28;;;-0.40;69.39
49973;BME280;71845;49.798;10.968;2024-01-30T05:25:16;99600.75;;;-0.32;69.56
49973;BME280;71845;49.798;10.968;2024-01-30T05:27:53;99599.03;;;-0.36;69.86
49973;BME280;71845;49.798;10.968;2024-01-30T05:30:23;99581.63;;;-0.38;69.70
49973;BME280;71845;49.798;10.968;2024-01-30T05:32:53;99591.19;;;-0.39;69.87
49973;BME280;71845;49.798;10.968;2024-01-30T05:35:21;99581.63;;;-0.38;69.24
49973;BME280;71845;49.798;10.968;2024-01-30T05:37:49;99585.13;;;-0.32;69.04
49973;BME280;71845;49.798;10.968;2024-01-30T05:40:20;99586.00;;;-0.33;69.59
49973;BME280;71845;49.798;10.968;2024-01-30T05:42:49;99590.34;;;-0.29;69.24
49973;BME280;71845;49.798;10.968;2024-01-30T05:45:31;99587.78;;;-0.25;69.24
49973;BME280;71845;49.798;10.968;2024-01-30T05:48:01;99573.88;;;-0.28;68.66
49973;BME280;71845;49.798;10.968;2024-01-30T05:50:31;99586.88;;;-0.23;68.88
49973;BME280;71845;49.798;10.968;2024-01-30T05:53:02;99591.22;;;-0.22;68.88
49973;BME280;71845;49.798;10.968;2024-01-30T05:55:31;99591.22;;;-0.22;69.14
49973;BME280;71845;49.798;10.968;2024-01-30T05:58:02;99587.72;;;-0.32;69.98
49973;BME280;71845;49.798;10.968;2024-01-30T06:00:47;99577.88;;;11.08;56.98
49973;BME280;71845;49.798;10.968;2024-01-30T06:03:17;99592.06;;;4.03;61.00
49973;BME280;71845;49.798;10.968;2024-01-30T06:05:48;99579.22;;;2.25;64.04
49973;BME280;71845;49.798;10.968;2024-01-30T06:08:17;99578.78;;;1.62;63.45
49973;BME280;71845;49.798;10.968;2024-01-30T06:10:45;99587.59;;;1.41;65.09
49973;BME280;71845;49.798;10.968;2024-01-30T06:13:15;99582.47;;;1.14;66.18
49973;BME280;71845;49.798;10.968;2024-01-30T06:15:46;99583.38;;;1.01;64.32
49973;BME280;71845;49.798;10.968;2024-01-30T06:18:16;99584.28;;;0.86;66.14
49973;BME280;71845;49.798;10.968;2024-01-30T06:20:47;99583.41;;;0.82;65.89
49973;BME280;71845;49.798;10.968;2024-01-30T06:23:17;99581.19;;;1.96;70.05
49973;BME280;71845;49.798;10.968;2024-01-30T06:25:47;99585.97;;;1.10;65.51
49973;BME280;71845;49.798;10.968;2024-01-30T06:28:14;99585.13;;;0.94;66.36
49973;BME280;71845;49.798;10.968;2024-01-30T06:30:47;99598.22;;;0.79;66.24
49973;BME280;71845;49.798;10.968;2024-01-30T06:33:18;99590.38;;;0.80;66.07
49973;BME280;71845;49.798;10.968;2024-01-30T06:35:46;99593.88;;;0.67;66.04
49973;BME280;71845;49.798;10.968;2024-01-30T06:38:14;99596.50;;;0.67;67.00
49973;BME280;71845;49.798;10.968;2024-01-30T06:40:51;99595.63;;;0.68;67.00
49973;BME280;71845;49.798;10.968;2024-01-30T06:43:22;99599.97;;;0.66;66.29
49973;BME280;71845;49.798;10.968;2024-01-30T06:46:02;99601.72;;;0.61;67.08
49973;BME280;71845;49.798;10.968;2024-01-30T06:48:31;99599.09;;;0.71;66.51
49973;BME280;71845;49.798;10.968;2024-01-30T06:51:13;99599.09;;;0.59;66.84
49973;BME280;71845;49.798;10.968;2024-01-30T06:53:57;99599.09;;;0.64;67.33
49973;BME280;71845;49.798;10.968;2024-01-30T06:56:27;99593.88;;;0.64;67.11
49973;BME280;71845;49.798;10.968;2024-01-30T06:58:57;99593.03;;;0.55;66.65
49973;BME280;71845;49.798;10.968;2024-01-30T07:01:29;99598.25;;;0.51;66.83
49973;BME280;71845;49.798;10.968;2024-01-30T07:03:57;99606.09;;;0.55;67.54
49973;BME280;71845;49.798;10.968;2024-01-30T07:06:26;99606.06;;;0.62;66.74
49973;BME280;71845;49.798;10.968;2024-01-30T07:08:54;99601.75;;;0.50;67.08
49973;BME280;71845;49.798;10.968;2024-01-30T07:11:25;99606.94;;;0.61;67.01
49973;BME280;71845;49.798;10.968;2024-01-30T07:13:55;99609.53;;;0.71;67.26
49973;BME280;71845;49.798;10.968;2024-01-30T07:16:22;99610.41;;;0.77;66.51
49973;BME280;71845;49.798;10.968;2024-01-30T07:18:57;99606.06;;;0.82;66.59
49973;BME280;71845;49.798;10.968;2024-01-30T07:21:26;99608.69;;;0.74;66.83
49973;BME280;71845;49.798;10.968;2024-01-30T07:23:58;99610.41;;;0.75;66.58
49973;BME280;71845;49.798;10.968;2024-01-30T07:26:31;99610.38;;;0.86;66.35
49973;BME280;71845;49.798;10.968;2024-01-30T07:29:02;99605.16;;;0.88;67.00
49973;BME280;71845;49.798;10.968;2024-01-30T07:31:33;99597.34;;;0.86;66.80
49973;BME280;71845;49.798;10.968;2024-01-30T07:34:04;99611.22;;;1.00;66.85
49973;BME280;71845;49.798;10.968;2024-01-30T07:36:32;99604.28;;;0.99;65.95
49973;BME280;71845;49.798;10.968;2024-01-30T07:39:00;99616.44;;;1.05;66.02
49973;BME280;71845;49.798;10.968;2024-01-30T07:41:30;99614.72;;;0.99;66.18
49973;BME280;71845;49.798;10.968;2024-01-30T07:43:58;99614.66;;;1.12;66.42
49973;BME280;71845;49.798;10.968;2024-01-30T07:46:28;99606.00;;;0.99;66.99
49973;BME280;71845;49.798;10.968;2024-01-30T07:48:58;99616.41;;;1.10;67.20
49973;BME280;71845;49.798;10.968;2024-01-30T07:51:31;99609.41;;;1.20;67.03
49973;BME280;71845;49.798;10.968;2024-01-30T07:53:59;99612.91;;;1.23;66.41
49973;BME280;71845;49.798;10.968;2024-01-30T07:56:28;99617.22;;;1.32;66.15
49973;BME280;71845;49.798;10.968;2024-01-30T07:58:56;99621.59;;;1.28;66.06
49973;BME280;71845;49.798;10.968;2024-01-30T08:01:24;99626.78;;;1.33;66.53
49973;BME280;71845;49.798;10.968;2024-01-30T08:03:54;99625.00;;;1.51;66.15
49973;BME280;71845;49.798;10.968;2024-01-30T08:06:24;99621.50;;;1.55;66.21
49973;BME280;71845;49.798;10.968;2024-01-30T08:09:04;99625.81;;;1.67;65.92
49973;BME280;71845;49.798;10.968;2024-01-30T08:11:33;99628.38;;;1.75;65.42
49973;BME280;71845;49.798;10.968;2024-01-30T08:14:01;99625.72;;;1.81;65.27
49973;BME280;71845;49.798;10.968;2024-01-30T08:16:33;99637.88;;;1.91;65.41
49973;BME280;71845;49.798;10.968;2024-01-30T08:19:02;99628.25;;;1.98;65.77
49973;BME280;71845;49.798;10.968;2024-01-30T08:21:31;99629.00;;;2.14;64.91
49973;BME280;71845;49.798;10.968;2024-01-30T08:24:16;99635.91;;;2.27;64.77
49973;BME280;71845;49.798;10.968;2024-01-30T08:26:46;99625.34;;;2.37;64.89
49973;BME280;71845;49.798;10.968;2024-01-30T08:29:16;99627.94;;;2.41;65.15
49973;BME280;71845;49.798;10.968;2024-01-30T08:31:47;99638.44;;;2.40;65.14
49973;BME280;71845;49.798;10.968;2024-01-30T08:34:16;99638.34;;;2.49;65.26
49973;BME280;71845;49.798;10.968;2024-01-30T08:36:44;99635.72;;;2.49;65.66
49973;BME280;71845;49.798;10.968;2024-01-30T08:39:29;99637.41;;;2.58;64.12
49973;BME280;71845;49.798;10.968;2024-01-30T08:41:57;99645.16;;;2.69;64.68
49973;BME280;71845;49.798;10.968;2024-01-30T08:44:27;99632.06;;;2.69;64.68
49973;BME280;71845;49.798;10.968;2024-01-30T08:46:57;99634.63;;;2.77;65.06
49973;BME280;71845;49.798;10.968;2024-01-30T08:49:28;99637.31;;;2.69;64.54
49973;BME280;71845;49.798;10.968;2024-01-30T08:51:56;99634.66;;;2.74;64.77
49973;BME280;71845;49.798;10.968;2024-01-30T08:54:50;99635.34;;;2.91;64.50
49973;BME280;71845;49.798;10.968;2024-01-30T08:57:18;99623.97;;;2.98;63.90
49973;BME280;71845;49.798;10.968;2024-01-30T08:59:48;99625.66;;;3.01;64.12
49973;BME280;71845;49.798;10.968;2024-01-30T09:02:17;99624.03;;;2.89;64.71
49973;BME280;71845;49.798;10.968;2024-01-30T09:04:46;99632.84;;;2.80;65.19
49973;BME280;71845;49.798;10.968;2024-01-30T09:07:16;99631.94;;;2.86;66.17
49973;BME280;71845;49.798;10.968;2024-01-30T09:09:58;99633.63;;;2.92;66.23
49973;BME280;71845;49.798;10.968;2024-01-30T09:12:26;99631.81;;;2.97;66.41
49973;BME280;71845;49.798;10.968;2024-01-30T09:14:57;99634.47;;;2.92;66.27
49973;BME280;71845;49.798;10.968;2024-01-30T09:17:26;99637.19;;;2.83;66.35
49973;BME280;71845;49.798;10.968;2024-01-30T09:19:58;99639.63;;;3.00;66.28
49973;BME280;71845;49.798;10.968;2024-01-30T09:22:28;99639.69;;;2.98;66.38
49973;BME280;71845;49.798;10.968;2024-01-30T09:25:01;99643.19;;;2.96;66.83
49973;BME280;71845;49.798;10.968;2024-01-30T09:27:29;99638.75;;;3.01;66.39
49973;BME280;71845;49.798;10.968;2024-01-30T09:29:58;99635.16;;;3.11;66.95
49973;BME280;71845;49.798;10.968;2024-01-30T09:32:27;99635.09;;;3.21;66.54
49973;BME280;71845;49.798;10.968;2024-01-30T09:34:55;99624.59;;;3.19;66.44
49973;BME280;71845;49.798;10.968;2024-01-30T09:37:24;99636.75;;;3.28;65.57
49973;BME280;71845;49.798;10.968;2024-01-30T09:40:04;99640.19;;;3.32;65.58
49973;BME280;71845;49.798;10.968;2024-01-30T09:42:35;99641.00;;;3.38;65.94
49973;BME280;71845;49.798;10.968;2024-01-30T09:45:05;99643.53;;;3.45;65.41
49973;BME280;71845;49.798;10.968;2024-01-30T09:47:40;99648.78;;;3.43;65.62
49973;BME280;71845;49.798;10.968;2024-01-30T09:50:13;99653.88;;;3.57;64.99
49973;BME280;71845;49.798;10.968;2024-01-30T09:52:44;99649.53;;;3.53;65.41
49973;BME280;71845;49.798;10.968;2024-01-30T09:55:22;99657.28;;;3.65;64.34
49973;BME280;71845;49.798;10.968;2024-01-30T09:57:53;99643.22;;;3.73;64.40
49973;BME280;71845;49.798;10.968;2024-01-30T10:00:23;99649.22;;;3.81;64.37
49973;BME280;71845;49.798;10.968;2024-01-30T10:02:55;99642.19;;;3.83;64.17
49973;BME280;71845;49.798;10.968;2024-01-30T10:05:27;99645.00;;;3.67;63.81
49973;BME280;71845;49.798;10.968;2024-01-30T10:07:57;99640.38;;;3.88;63.13
49973;BME280;71845;49.798;10.968;2024-01-30T10:10:39;99643.84;;;3.90;63.10
49973;BME280;71845;49.798;10.968;2024-01-30T10:13:10;99641.97;;;4.00;62.81
49973;BME280;71845;49.798;10.968;2024-01-30T10:15:41;99633.16;;;4.06;63.04
49973;BME280;71845;49.798;10.968;2024-01-30T10:18:09;99647.06;;;4.11;62.94
49973;BME280;71845;49.798;10.968;2024-01-30T10:20:46;99641.72;;;4.17;62.42
49973;BME280;71845;49.798;10.968;2024-01-30T10:23:14;99632.94;;;4.18;62.50
49973;BME280;71845;49.798;10.968;2024-01-30T10:25:59;99641.44;;;4.36;62.28
49973;BME280;71845;49.798;10.968;2024-01-30T10:28:28;99636.06;;;4.43;61.87
49973;BME280;71845;49.798;10.968;2024-01-30T10:31:05;99641.00;;;4.64;61.56
49973;BME280;71845;49.798;10.968;2024-01-30T10:33:36;99636.75;;;4.56;62.07
49973;BME280;71845;49.798;10.968;2024-01-30T10:36:14;99635.75;;;4.64;61.72
49973;BME280;71845;49.798;10.968;2024-01-30T10:38:44;99636.59;;;4.66;61.50
49973;BME280;71845;49.798;10.968;2024-01-30T10:41:27;99637.41;;;4.68;61.18
49973;BME280;71845;49.798;10.968;2024-01-30T10:44:02;99635.38;;;4.85;61.15
49973;BME280;71845;49.798;10.968;2024-01-30T10:46:37;99639.69;;;4.90;61.33
49973;BME280;71845;49.798;10.968;2024-01-30T10:49:09;99630.13;;;4.85;61.25
49973;BME280;71845;49.798;10.968;2024-01-30T10:51:38;99636.13;;;4.92;61.31
49973;BME280;71845;49.798;10.968;2024-01-30T10:54:08;99632.59;;;4.93;60.79
49973;BME280;71845;49.798;10.968;2024-01-30T10:56:43;99634.25;;;4.99;60.26
49973;BME280;71845;49.798;10.968;2024-01-30T10:59:14;99630.56;;;5.09;60.57
49973;BME280;71845;49.798;10.968;2024-01-30T11:01:41;99637.84;;;4.93;60.15
49973;BME280;71845;49.798;10.968;2024-01-30T11:04:09;99620.97;;;5.07;60.55
49973;BME280;71845;49.798;10.968;2024-01-30T11:06:41;99637.34;;;5.21;60.82
49973;BME280;71845;49.798;10.968;2024-01-30T11:09:18;99626.84;;;5.23;60.51
49973;BME280;71845;49.798;10.968;2024-01-30T11:11:56;99625.19;;;5.16;60.77
49973;BME280;71845;49.798;10.968;2024-01-30T11:14:29;99623.03;;;5.38;60.47
49973;BME280;71845;49.798;10.968;2024-01-30T11:17:10;99625.44;;;5.49;60.07
49973;BME280;71845;49.798;10.968;2024-01-30T11:19:41;99626.41;;;5.43;60.21
49973;BME280;71845;49.798;10.968;2024-01-30T11:22:20;99625.41;;;5.50;60.04
49973;BME280;71845;49.798;10.968;2024-01-30T11:24:51;99624.19;;;5.67;59.70
49973;BME280;71845;49.798;10.968;2024-01-30T11:27:23;99617.13;;;5.70;59.17
49973;BME280;71845;49.798;10.968;2024-01-30T11:30:01;99616.22;;;5.72;58.83
49973;BME280;71845;49.798;10.968;2024-01-30T11:32:32;99614.53;;;5.67;59.14
49973;BME280;71845;49.798;10.968;2024-01-30T11:35:05;99609.97;;;5.76;59.15
49973;BME280;71845;49.798;10.968;2024-01-30T11:37:37;99604.72;;;5.76;59.44
49973;BME280;71845;49.798;10.968;2024-01-30T11:40:07;99601.38;;;5.67;59.59
49973;BME280;71845;49.798;10.968;2024-01-30T11:42:56;99595.06;;;7.81;60.70
49973;BME280;71845;49.798;10.968;2024-01-30T11:45:26;99597.88;;;6.08;59.87
49973;BME280;71845;49.798;10.968;2024-01-30T11:47:56;99596.69;;;5.82;61.20
49973;BME280;71845;49.798;10.968;2024-01-30T11:50:28;99595.72;;;5.86;60.65
49973;BME280;71845;49.798;10.968;2024-01-30T11:52:59;99588.84;;;5.80;60.78
49973;BME280;71845;49.798;10.968;2024-01-30T11:55:34;99586.81;;;5.92;60.50
49973;BME280;71845;49.798;10.968;2024-01-30T11:58:16;99586.06;;;5.85;60.99
49973;BME280;71845;49.798;10.968;2024-01-30T12:00:53;99584.22;;;5.90;60.86
49973;BME280;71845;49.798;10.968;2024-01-30T12:03:23;99575.34;;;5.94;60.81
49973;BME280;71845;49.798;10.968;2024-01-30T12:05:55;99572.56;;;6.02;61.07
49973;BME280;71845;49.798;10.968;2024-01-30T12:08:27;99573.47;;;5.99;60.86
49973;BME280;71845;49.798;10.968;2024-01-30T12:10:57;99573.63;;;5.93;60.34
49973;BME280;71845;49.798;10.968;2024-01-30T12:13:31;99560.28;;;6.01;60.23
49973;BME280;71845;49.798;10.968;2024-01-30T12:15:57;99563.59;;;6.09;59.90
49973;BME280;71845;49.798;10.968;2024-01-30T12:18:26;99563.19;;;6.28;59.10
49973;BME280;71845;49.798;10.968;2024-01-30T12:21:00;99559.06;;;6.16;59.50
49973;BME280;71845;49.798;10.968;2024-01-30T12:23:30;99558.41;;;6.06;59.40
49973;BME280;71845;49.798;10.968;2024-01-30T12:26:02;99556.75;;;7.38;56.38
49973;BME280;71845;49.798;10.968;2024-01-30T12:28:47;99562.97;;;6.72;57.76
49973;BME280;71845;49.798;10.968;2024-01-30T12:31:18;99556.19;;;6.63;58.30
49973;BME280;71845;49.798;10.968;2024-01-30T12:33:49;99557.41;;;6.48;58.28
49973;BME280;71845;49.798;10.968;2024-01-30T12:36:17;99537.63;;;6.33;58.71
49973;BME280;71845;49.798;10.968;2024-01-30T12:38:48;99543.22;;;6.54;58.81
49973;BME280;71845;49.798;10.968;2024-01-30T12:41:18;99543.31;;;6.51;58.92
49973;BME280;71845;49.798;10.968;2024-01-30T12:43:47;99541.69;;;6.47;59.06
49973;BME280;71845;49.798;10.968;2024-01-30T12:46:17;99545.75;;;6.59;58.63
49973;BME280;71845;49.798;10.968;2024-01-30T12:48:46;99539.34;;;6.69;58.91
49973;BME280;71845;49.798;10.968;2024-01-30T12:51:16;99537.44;;;6.74;58.69
49973;BME280;71845;49.798;10.968;2024-01-30T12:53:44;99536.44;;;6.78;58.39
49973;BME280;71845;49.798;10.968;2024-01-30T12:56:13;99539.97;;;6.79;58.15
49973;BME280;71845;49.798;10.968;2024-01-30T12:58:42;99535.22;;;6.92;57.92
49973;BME280;71845;49.798;10.968;2024-01-30T13:01:13;99533.78;;;6.80;58.57
49973;BME280;71845;49.798;10.968;2024-01-30T13:03:42;99543.34;;;6.82;58.39
49973;BME280;71845;49.798;10.968;2024-01-30T13:06:12;99542.84;;;7.01;57.98
49973;BME280;71845;49.798;10.968;2024-01-30T13:08:43;99547.28;;;7.01;57.72
49973;BME280;71845;49.798;10.968;2024-01-30T13:11:14;99547.66;;;6.87;57.41
49973;BME280;71845;49.798;10.968;2024-01-30T13:13:43;99548.19;;;7.00;57.42
49973;BME280;71845;49.798;10.968;2024-01-30T13:16:25;99543.75;;;7.00;57.18
49973;BME280;71845;49.798;10.968;2024-01-30T13:18:54;99544.72;;;6.97;57.46